createdAt,value
2023-01-21T00:00:40.573Z,20.33
2023-01-21T00:02:44.890Z,22.00
2023-01-21T00:04:47.888Z,20.38
2023-01-21T00:06:51.820Z,19.52
2023-01-21T00:08:54.372Z,19.02
2023-01-21T00:10:57.206Z,21.35
2023-01-21T00:12:59.749Z,21.63
2023-01-21T00:15:02.307Z,22.60
2023-01-21T00:17:04.889Z,20.52
2023-01-21T00:19:07.514Z,17.80
2023-01-21T00:21:10.602Z,15.80
2023-01-21T00:23:14.503Z,17.23
2023-01-21T00:25:17.256Z,17.63
2023-01-21T00:27:19.852Z,18.77
2023-01-21T00:29:22.515Z,19.98
2023-01-21T00:31:25.268Z,20.63
2023-01-21T00:33:28.593Z,18.67
2023-01-21T00:35:31.292Z,15.43
2023-01-21T00:37:33.926Z,20.05
2023-01-21T00:39:42.619Z,18.63
2023-01-21T00:41:45.209Z,16.25
2023-01-21T00:43:47.806Z,17.60
2023-01-21T00:45:50.380Z,20.00
2023-01-21T00:47:52.969Z,19.83
2023-01-21T00:49:55.628Z,18.65
2023-01-21T00:51:58.802Z,15.45
2023-01-21T00:54:01.398Z,18.20
2023-01-21T00:56:07.703Z,16.98
2023-01-21T00:58:10.709Z,16.38
2023-01-21T01:00:15.177Z,16.63
2023-01-21T01:02:17.966Z,16.33
2023-01-21T01:04:20.584Z,20.33
2023-01-21T01:06:24.662Z,15.88
2023-01-21T01:08:27.243Z,18.45
2023-01-21T01:10:29.786Z,19.83
2023-01-21T01:12:33.717Z,25.15
2023-01-21T01:14:37.225Z,20.30
2023-01-21T01:16:39.819Z,18.33
2023-01-21T01:18:42.418Z,17.27
2023-01-21T01:20:47.316Z,19.42
2023-01-21T01:22:49.875Z,20.80
2023-01-21T01:24:52.449Z,17.33
2023-01-21T01:26:55.012Z,19.63
2023-01-21T01:28:58.919Z,18.45
2023-01-21T01:31:02.179Z,18.35
2023-01-21T01:33:05.070Z,20.20
2023-01-21T01:35:08.254Z,20.50
2023-01-21T01:37:10.875Z,20.83
2023-01-21T01:39:13.465Z,18.85
2023-01-21T01:41:18.197Z,20.42
2023-01-21T01:43:22.844Z,18.35
2023-01-21T01:45:26.864Z,18.50
2023-01-21T01:47:33.320Z,17.95
2023-01-21T01:49:36.011Z,19.70
2023-01-21T01:51:45.419Z,17.42
2023-01-21T01:53:49.261Z,19.25
2023-01-21T01:55:52.824Z,19.08
2023-01-21T01:57:56.319Z,19.70
2023-01-21T02:00:01.903Z,19.65
2023-01-21T02:02:08.575Z,25.20
2023-01-21T02:04:13.986Z,20.20
2023-01-21T02:06:18.359Z,19.83
2023-01-21T02:08:21.253Z,17.40
2023-01-21T02:10:23.793Z,16.95
2023-01-21T02:12:26.643Z,21.15
2023-01-21T02:14:30.586Z,24.05
2023-01-21T02:16:56.406Z,20.83
2023-01-21T02:19:14.188Z,20.40
2023-01-21T02:21:43.174Z,20.75
2023-01-21T02:24:11.498Z,20.98
2023-01-21T02:26:49.686Z,19.02
2023-01-21T02:29:17.137Z,23.60
2023-01-21T02:31:37.101Z,19.60
2023-01-21T02:33:53.404Z,23.33
2023-01-21T02:36:08.506Z,25.13
2023-01-21T02:38:20.986Z,23.67
2023-01-21T02:40:30.293Z,24.70
2023-01-21T02:42:42.076Z,21.58
2023-01-21T02:46:54.583Z,26.25
2023-01-21T02:49:01.893Z,25.05
2023-01-21T02:51:06.204Z,23.42
2023-01-21T02:53:19.903Z,24.10
2023-01-21T02:55:27.639Z,23.40
2023-01-21T02:57:38.007Z,26.17
2023-01-21T02:59:45.413Z,24.63
2023-01-21T03:02:00.505Z,31.50
2023-01-21T03:04:39.288Z,27.98
2023-01-21T03:07:00.541Z,27.77
2023-01-21T03:09:12.259Z,29.80
2023-01-21T03:13:44.120Z,24.48
2023-01-21T03:16:10.288Z,25.10
2023-01-21T03:18:19.655Z,21.38
2023-01-21T03:20:27.476Z,33.80
2023-01-21T03:22:35.089Z,26.10
2023-01-21T03:24:39.447Z,23.23
2023-01-21T03:26:46.795Z,30.40
2023-01-21T03:28:52.828Z,24.27
2023-01-21T03:31:00.474Z,23.33
2023-01-21T03:33:04.760Z,28.80
2023-01-21T03:35:09.780Z,27.52
2023-01-21T03:37:19.387Z,24.60
2023-01-21T03:39:30.216Z,25.40
2023-01-21T03:41:36.778Z,21.33
2023-01-21T03:43:40.053Z,24.20
2023-01-21T03:45:49.709Z,23.25
2023-01-21T03:47:58.380Z,25.38
2023-01-21T03:50:06.671Z,25.08
2023-01-21T03:52:11.225Z,25.60
2023-01-21T03:54:15.305Z,25.42
2023-01-21T03:56:17.903Z,26.45
2023-01-21T03:58:20.489Z,26.50
2023-01-21T04:00:23.497Z,25.63
2023-01-21T04:02:26.271Z,27.58
2023-01-21T04:04:28.950Z,27.33
2023-01-21T04:06:31.621Z,23.08
2023-01-21T04:08:34.186Z,29.92
2023-01-21T04:10:38.132Z,27.40
2023-01-21T04:12:40.761Z,24.73
2023-01-21T04:14:43.424Z,25.73
2023-01-21T04:16:46.068Z,25.40
2023-01-21T04:18:48.853Z,28.50
2023-01-21T04:20:51.429Z,24.88
2023-01-21T04:22:54.056Z,25.08
2023-01-21T04:24:56.674Z,28.00
2023-01-21T04:27:00.558Z,26.25
2023-01-21T04:29:03.194Z,25.52
2023-01-21T04:31:05.979Z,26.02
2023-01-21T04:33:08.618Z,26.05
2023-01-21T04:35:11.367Z,25.50
2023-01-21T04:37:13.980Z,25.92
2023-01-21T04:39:16.759Z,29.17
2023-01-21T04:41:19.464Z,28.15
2023-01-21T04:43:23.368Z,33.78
2023-01-21T04:45:26.059Z,34.70
2023-01-21T04:47:28.731Z,22.75
2023-01-21T04:49:31.289Z,28.95
2023-01-21T04:51:33.844Z,26.90
2023-01-21T04:53:36.462Z,24.98
2023-01-21T04:55:39.075Z,23.08
2023-01-21T04:57:41.641Z,25.15
2023-01-21T04:59:45.583Z,26.48
2023-01-21T05:01:48.146Z,28.63
2023-01-21T05:03:50.711Z,26.55
2023-01-21T05:05:53.293Z,25.42
2023-01-21T05:07:56.126Z,24.50
2023-01-21T05:09:58.706Z,22.65
2023-01-21T05:12:01.285Z,25.15
2023-01-21T05:14:03.848Z,26.20
2023-01-21T05:16:09.979Z,24.88
2023-01-21T05:18:12.626Z,25.20
2023-01-21T05:20:15.730Z,29.05
2023-01-21T05:22:18.581Z,25.88
2023-01-21T05:24:21.190Z,23.17
2023-01-21T05:26:23.765Z,28.38
2023-01-21T05:28:26.810Z,26.05
2023-01-21T05:30:29.487Z,27.73
2023-01-21T05:32:33.485Z,26.35
2023-01-21T05:34:36.069Z,25.95
2023-01-21T05:36:39.306Z,27.88
2023-01-21T05:38:42.037Z,22.38
2023-01-21T05:40:44.611Z,25.08
2023-01-21T05:42:48.169Z,23.88
2023-01-21T05:44:50.741Z,26.58
2023-01-21T05:46:53.497Z,34.83
2023-01-21T05:48:57.365Z,25.48
2023-01-21T05:51:00.358Z,28.65
2023-01-21T05:53:02.940Z,25.00
2023-01-21T05:55:06.503Z,28.95
2023-01-21T05:57:09.057Z,27.70
2023-01-21T05:59:11.631Z,29.95
2023-01-21T06:01:14.215Z,22.05
2023-01-21T06:03:17.766Z,22.60
2023-01-21T06:05:21.722Z,29.00
2023-01-21T06:07:24.284Z,21.45
2023-01-21T06:09:26.916Z,19.95
2023-01-21T06:11:29.457Z,28.35
2023-01-21T06:13:32.005Z,28.33
2023-01-21T06:15:34.664Z,24.15
2023-01-21T06:17:39.728Z,26.02
2023-01-21T06:19:42.335Z,23.10
2023-01-21T06:21:46.267Z,21.75
2023-01-21T06:23:48.800Z,23.02
2023-01-21T06:25:51.350Z,20.02
2023-01-21T06:27:55.782Z,22.17
2023-01-21T06:29:58.377Z,28.02
2023-01-21T06:32:00.984Z,22.95
2023-01-21T06:34:03.699Z,22.45
2023-01-21T06:36:06.911Z,22.42
2023-01-21T06:38:10.935Z,25.50
2023-01-21T06:40:14.652Z,26.35
2023-01-21T06:42:17.877Z,26.08
2023-01-21T06:44:20.432Z,25.05
2023-01-21T06:46:23.150Z,29.40
2023-01-21T06:48:25.868Z,27.25
2023-01-21T06:50:28.435Z,22.58
2023-01-21T06:52:30.988Z,25.52
2023-01-21T06:54:34.888Z,24.83
2023-01-21T06:56:38.284Z,28.55
2023-01-21T06:58:40.918Z,25.27
2023-01-21T07:00:43.509Z,25.88
2023-01-21T07:02:46.214Z,26.50
2023-01-21T07:04:50.827Z,25.75
2023-01-21T07:06:53.539Z,33.72
2023-01-21T07:08:56.104Z,32.03
2023-01-21T07:11:00.007Z,28.17
2023-01-21T07:13:02.645Z,30.58
2023-01-21T07:15:06.473Z,29.15
2023-01-21T07:17:09.025Z,24.70
2023-01-21T07:19:12.466Z,25.20
2023-01-21T07:21:15.072Z,31.85
2023-01-21T07:23:17.686Z,27.90
2023-01-21T07:25:20.559Z,24.60
2023-01-21T07:27:24.497Z,26.63
2023-01-21T07:29:28.009Z,29.67
2023-01-21T07:31:30.707Z,23.77
2023-01-21T07:33:33.346Z,30.58
2023-01-21T07:35:36.662Z,30.42
2023-01-21T07:37:39.206Z,32.25
2023-01-21T07:39:41.812Z,29.92
2023-01-21T07:41:44.418Z,24.10
2023-01-21T07:43:49.124Z,25.75
2023-01-21T07:45:51.870Z,34.25
2023-01-21T07:47:54.421Z,25.08
2023-01-21T07:49:57.058Z,34.83
2023-01-21T07:51:59.819Z,22.48
2023-01-21T07:54:02.395Z,19.92
2023-01-21T07:56:05.504Z,25.67
2023-01-21T07:58:08.097Z,24.40
2023-01-21T08:00:13.559Z,31.02
2023-01-21T08:02:16.264Z,26.45
2023-01-21T08:04:18.903Z,30.08
2023-01-21T08:06:21.455Z,29.27
2023-01-21T08:08:24.021Z,33.50
2023-01-21T08:10:27.196Z,31.15
2023-01-21T08:12:29.744Z,33.22
2023-01-21T08:14:32.458Z,31.08
2023-01-21T08:16:36.511Z,31.80
2023-01-21T08:18:39.123Z,31.02
2023-01-21T08:20:41.709Z,27.60
2023-01-21T08:22:44.296Z,29.60
2023-01-21T08:24:47.165Z,31.90
2023-01-21T08:26:49.849Z,33.00
2023-01-21T08:28:54.420Z,31.15
2023-01-21T08:31:04.161Z,27.20
2023-01-21T08:33:08.134Z,33.63
2023-01-21T08:35:11.084Z,33.92
2023-01-21T08:37:13.687Z,29.70
2023-01-21T08:39:16.459Z,29.63
2023-01-21T08:41:19.066Z,29.08
2023-01-21T08:43:21.611Z,31.15
2023-01-21T08:45:24.206Z,36.63
2023-01-21T08:47:29.015Z,31.55
2023-01-21T08:49:32.958Z,26.73
2023-01-21T08:51:35.680Z,29.67
2023-01-21T08:53:38.304Z,32.88
2023-01-21T08:55:40.905Z,34.03
2023-01-21T08:57:43.462Z,27.00
2023-01-21T08:59:46.045Z,30.00
2023-01-21T09:01:48.625Z,28.83
2023-01-21T09:03:55.384Z,31.67
2023-01-21T09:06:02.662Z,33.10
2023-01-21T09:08:05.242Z,37.92
2023-01-21T09:10:09.049Z,31.75
2023-01-21T09:12:11.622Z,36.28
2023-01-21T09:14:14.211Z,35.08
2023-01-21T09:16:19.654Z,36.28
2023-01-21T09:18:22.305Z,38.17
2023-01-21T09:20:24.851Z,42.03
2023-01-21T09:22:28.859Z,35.97
2023-01-21T09:24:31.592Z,43.92
2023-01-21T09:26:34.228Z,35.72
2023-01-21T09:28:38.588Z,41.80
2023-01-21T09:30:41.163Z,42.45
2023-01-21T09:32:43.762Z,39.40
2023-01-21T09:34:46.336Z,38.58
2023-01-21T09:36:48.896Z,40.60
2023-01-21T09:38:52.956Z,46.20
2023-01-21T09:40:57.055Z,43.00
2023-01-21T09:43:04.236Z,47.53
2023-01-21T09:45:07.689Z,43.97
2023-01-21T09:47:18.951Z,43.92
2023-01-21T09:49:25.169Z,38.70
2023-01-21T09:51:35.914Z,38.60
2023-01-21T09:53:45.900Z,37.17
2023-01-21T09:55:51.211Z,38.75
2023-01-21T09:58:11.324Z,36.17
2023-01-21T10:00:25.183Z,42.15
2023-01-21T10:02:33.315Z,42.28
2023-01-21T10:04:46.871Z,41.42
2023-01-21T10:06:54.809Z,37.53
2023-01-21T10:09:11.879Z,44.08
2023-01-21T10:11:28.062Z,47.15
2023-01-21T10:13:41.982Z,41.88
2023-01-21T10:15:54.164Z,40.47
2023-01-21T10:18:00.420Z,42.50
2023-01-21T10:20:13.694Z,42.65
2023-01-21T10:22:20.334Z,46.10
2023-01-21T10:24:26.660Z,48.40
2023-01-21T10:26:34.909Z,47.70
2023-01-21T10:28:40.094Z,46.88
2023-01-21T10:30:45.789Z,44.47
2023-01-21T10:32:52.215Z,47.70
2023-01-21T10:34:56.298Z,46.83
2023-01-21T10:37:10.062Z,50.80
2023-01-21T10:39:24.116Z,45.17
2023-01-21T10:41:43.529Z,47.00
2023-01-21T10:43:50.408Z,42.70
2023-01-21T10:46:03.692Z,42.85
2023-01-21T10:48:14.479Z,45.63
2023-01-21T10:50:29.595Z,47.40
2023-01-21T10:52:38.876Z,44.10
2023-01-21T10:54:50.065Z,43.28
2023-01-21T10:57:04.918Z,49.00
2023-01-21T10:59:11.734Z,46.22
2023-01-21T11:01:21.911Z,47.92
2023-01-21T11:03:33.536Z,45.85
2023-01-21T11:05:36.654Z,46.38
2023-01-21T11:07:43.039Z,46.83
2023-01-21T11:09:48.544Z,49.08
2023-01-21T11:11:51.150Z,46.90
2023-01-21T11:13:56.105Z,48.15
2023-01-21T11:16:00.906Z,45.60
2023-01-21T11:18:29.084Z,48.70
2023-01-21T11:20:36.931Z,46.85
2023-01-21T11:22:43.591Z,46.63
2023-01-21T11:24:47.505Z,47.60
2023-01-21T11:26:52.048Z,52.42
2023-01-21T11:29:08.739Z,50.03
2023-01-21T11:31:14.422Z,48.42
2023-01-21T11:33:24.964Z,47.75
2023-01-21T11:35:29.150Z,49.70
2023-01-21T11:37:33.728Z,45.78
2023-01-21T11:39:39.921Z,48.42
2023-01-21T11:41:52.455Z,51.08
2023-01-21T11:43:58.396Z,48.28
2023-01-21T11:46:01.261Z,50.10
2023-01-21T11:48:20.441Z,51.70
2023-01-21T11:50:27.441Z,54.83
2023-01-21T11:52:31.400Z,59.22
2023-01-21T11:54:40.421Z,48.35
2023-01-21T11:56:53.260Z,54.08
2023-01-21T11:58:55.823Z,49.65
2023-01-21T12:01:01.095Z,50.33
2023-01-21T12:03:06.744Z,54.42
2023-01-21T12:05:16.883Z,53.97
2023-01-21T12:07:21.479Z,56.55
2023-01-21T12:09:27.240Z,52.30
2023-01-21T12:11:32.658Z,49.17
2023-01-21T12:13:45.894Z,50.22
2023-01-21T12:16:03.689Z,50.70
2023-01-21T12:18:21.972Z,51.65
2023-01-21T12:20:34.881Z,56.17
2023-01-21T12:22:50.360Z,53.13
2023-01-21T12:25:31.472Z,53.20
2023-01-21T12:27:41.775Z,56.65
2023-01-21T12:29:58.994Z,59.40
2023-01-21T12:32:06.805Z,58.30
2023-01-21T12:34:21.219Z,51.97
2023-01-21T12:36:30.655Z,53.90
2023-01-21T12:38:36.994Z,61.22
2023-01-21T12:40:48.155Z,51.55
2023-01-21T12:42:56.778Z,49.97
2023-01-21T12:45:02.941Z,54.58
2023-01-21T12:47:15.005Z,50.47
2023-01-21T12:49:22.143Z,53.35
2023-01-21T12:51:29.420Z,53.30
2023-01-21T12:53:41.333Z,55.08
2023-01-21T12:56:02.455Z,54.30
2023-01-21T12:58:09.528Z,46.25
2023-01-21T13:00:21.163Z,47.78
2023-01-21T13:02:29.598Z,47.25
2023-01-21T13:04:45.713Z,48.78
2023-01-21T13:06:54.811Z,46.00
2023-01-21T13:09:04.239Z,45.75
2023-01-21T13:11:18.455Z,41.17
2023-01-21T13:13:28.553Z,43.20
2023-01-21T13:15:34.152Z,40.05
2023-01-21T13:17:41.006Z,47.75
2023-01-21T13:19:43.605Z,46.45
2023-01-21T13:21:54.648Z,44.95
2023-01-21T13:24:04.373Z,41.45
2023-01-21T13:26:16.238Z,45.05
2023-01-21T13:28:29.943Z,44.50
2023-01-21T13:30:40.064Z,44.20
2023-01-21T13:32:48.553Z,40.85
2023-01-21T13:34:58.948Z,47.50
2023-01-21T13:37:10.967Z,42.28
2023-01-21T13:39:22.585Z,39.67
2023-01-21T13:41:47.063Z,42.25
2023-01-21T13:44:09.608Z,43.65
2023-01-21T13:46:28.153Z,40.13
2023-01-21T13:48:45.565Z,40.97
2023-01-21T13:51:03.743Z,41.00
2023-01-21T13:53:20.401Z,43.60
2023-01-21T13:55:34.114Z,40.22
2023-01-21T13:57:54.735Z,37.58
2023-01-21T14:00:04.668Z,38.88
2023-01-21T14:02:12.661Z,37.88
2023-01-21T14:04:23.023Z,37.95
2023-01-21T14:06:29.231Z,38.08
2023-01-21T14:08:37.285Z,37.30
2023-01-21T14:10:44.707Z,35.45
2023-01-21T14:13:28.029Z,38.85
2023-01-21T14:15:47.847Z,36.25
2023-01-21T14:18:13.777Z,34.60
2023-01-21T14:20:33.359Z,42.17
2023-01-21T14:22:51.379Z,43.60
2023-01-21T14:25:09.759Z,39.60
2023-01-21T14:27:23.995Z,36.40
2023-01-21T14:29:36.376Z,37.13
2023-01-21T14:31:44.207Z,38.97
2023-01-21T14:33:51.538Z,35.10
2023-01-21T14:36:02.344Z,36.63
2023-01-21T14:38:14.360Z,34.92
2023-01-21T14:40:20.592Z,31.23
2023-01-21T14:42:41.956Z,35.70
2023-01-21T14:45:02.304Z,37.08
2023-01-21T14:47:16.519Z,40.00
2023-01-21T14:49:41.307Z,47.60
2023-01-21T14:51:49.831Z,40.38
2023-01-21T14:53:58.063Z,39.13
2023-01-21T14:56:10.634Z,37.72
2023-01-21T14:58:23.067Z,38.47
2023-01-21T15:00:32.485Z,34.00
2023-01-21T15:02:40.707Z,39.22
2023-01-21T15:04:54.130Z,38.53
2023-01-21T15:09:01.801Z,44.35
2023-01-21T15:11:06.275Z,42.08
2023-01-21T15:13:28.065Z,42.72
2023-01-21T15:15:34.937Z,37.00
2023-01-21T15:18:04.917Z,35.95
2023-01-21T15:20:39.898Z,35.13
2023-01-21T15:22:46.748Z,39.58
2023-01-21T15:25:20.183Z,36.63
2023-01-21T15:27:25.716Z,33.88
2023-01-21T15:29:34.704Z,37.92
2023-01-21T15:31:42.863Z,39.17
2023-01-21T15:33:50.862Z,37.28
2023-01-21T15:35:55.043Z,31.98
2023-01-21T15:38:05.218Z,38.85
2023-01-21T15:40:17.988Z,38.70
2023-01-21T15:42:27.943Z,35.20
2023-01-21T15:44:48.513Z,36.97
2023-01-21T15:46:59.825Z,37.83
2023-01-21T15:49:21.322Z,37.42
2023-01-21T15:51:32.408Z,37.20
2023-01-21T15:53:52.642Z,40.85
2023-01-21T15:56:08.822Z,38.28
2023-01-21T15:58:22.835Z,42.60
2023-01-21T16:00:34.687Z,38.35
2023-01-21T16:02:51.647Z,41.90
2023-01-21T16:05:05.652Z,38.75
2023-01-21T16:07:20.536Z,35.30
2023-01-21T16:09:33.709Z,36.05
2023-01-21T16:11:55.042Z,35.30
2023-01-21T16:14:13.080Z,39.35
2023-01-21T16:16:25.489Z,39.70
2023-01-21T16:20:35.085Z,34.67
2023-01-21T16:22:41.061Z,37.75
2023-01-21T16:24:49.195Z,34.60
2023-01-21T16:26:51.783Z,32.38
2023-01-21T16:28:55.228Z,38.63
2023-01-21T16:30:59.760Z,33.72
2023-01-21T16:33:10.318Z,37.97
2023-01-21T16:35:12.843Z,37.45
2023-01-21T16:37:18.650Z,38.22
2023-01-21T16:39:21.260Z,33.50
2023-01-21T16:41:28.619Z,35.20
2023-01-21T16:43:31.680Z,39.95
2023-01-21T16:45:34.292Z,41.65
2023-01-21T16:47:37.951Z,34.95
2023-01-21T16:49:43.401Z,39.05
2023-01-21T16:51:54.052Z,39.25
2023-01-21T16:54:29.534Z,38.40
2023-01-21T16:56:33.481Z,34.53
2023-01-21T16:58:36.352Z,36.08
2023-01-21T17:00:38.969Z,35.80
2023-01-21T17:02:41.630Z,37.13
2023-01-21T17:04:44.224Z,38.05
2023-01-21T17:06:47.721Z,36.25
2023-01-21T17:08:55.010Z,33.50
2023-01-21T17:11:00.186Z,32.15
2023-01-21T17:13:06.808Z,35.70
2023-01-21T17:15:19.556Z,35.83
2023-01-21T17:17:24.412Z,34.92
2023-01-21T17:19:34.130Z,34.00
2023-01-21T17:21:41.757Z,43.35
2023-01-21T17:23:48.958Z,33.20
2023-01-21T17:25:56.321Z,38.55
2023-01-21T17:27:58.963Z,34.65
2023-01-21T17:30:31.273Z,32.13
2023-01-21T17:32:34.763Z,36.17
2023-01-21T17:34:39.845Z,31.30
2023-01-21T17:36:44.115Z,36.55
2023-01-21T17:38:47.906Z,30.60
2023-01-21T17:41:01.284Z,32.00
2023-01-21T17:43:16.355Z,34.53
2023-01-21T17:45:24.857Z,33.40
2023-01-21T17:47:30.803Z,35.80
2023-01-21T17:49:33.485Z,36.15
2023-01-21T17:51:36.600Z,32.97
2023-01-21T17:53:46.287Z,32.88
2023-01-21T17:55:58.863Z,36.42
2023-01-21T17:58:04.569Z,33.08
2023-01-21T18:00:25.812Z,32.63
2023-01-21T18:02:29.843Z,28.13
2023-01-21T18:04:32.543Z,29.63
2023-01-21T18:06:35.708Z,31.52
2023-01-21T18:08:38.263Z,30.25
2023-01-21T18:10:41.614Z,30.70
2023-01-21T18:12:44.170Z,30.60
2023-01-21T18:14:47.263Z,33.47
2023-01-21T18:16:50.185Z,40.80
2023-01-21T18:18:54.668Z,34.33
2023-01-21T18:20:57.522Z,32.15
2023-01-21T18:23:00.529Z,33.95
2023-01-21T18:25:05.169Z,31.40
2023-01-21T18:27:10.419Z,32.40
2023-01-21T18:29:12.955Z,29.58
2023-01-21T18:31:15.811Z,33.25
2023-01-21T18:33:18.748Z,30.75
2023-01-21T18:35:26.651Z,30.20
2023-01-21T18:37:29.226Z,28.52
2023-01-21T18:39:31.780Z,31.63
2023-01-21T18:41:34.334Z,34.15
2023-01-21T18:43:36.912Z,32.90
2023-01-21T18:45:40.240Z,30.55
2023-01-21T18:47:43.606Z,30.95
2023-01-21T18:49:49.274Z,30.45
2023-01-21T18:51:53.325Z,28.75
2023-01-21T18:53:55.883Z,31.25
2023-01-21T18:55:58.448Z,28.35
2023-01-21T18:58:02.380Z,31.30
2023-01-21T19:00:14.719Z,26.92
2023-01-21T19:02:19.813Z,26.02
2023-01-21T19:04:22.400Z,26.52
2023-01-21T19:06:26.019Z,31.98
2023-01-21T19:08:30.256Z,29.23
2023-01-21T19:10:33.056Z,31.00
2023-01-21T19:12:35.631Z,30.92
2023-01-21T19:14:38.236Z,29.65
2023-01-21T19:16:41.398Z,25.63
2023-01-21T19:18:43.997Z,28.40
2023-01-21T19:20:46.597Z,27.05
2023-01-21T19:22:50.139Z,27.65
2023-01-21T19:24:54.069Z,28.45
2023-01-21T19:26:56.658Z,25.70
2023-01-21T19:28:59.284Z,27.58
2023-01-21T19:31:02.017Z,31.85
2023-01-21T19:33:05.390Z,28.67
2023-01-21T19:35:09.064Z,27.45
2023-01-21T19:37:14.858Z,32.53
2023-01-21T19:39:22.826Z,30.27
2023-01-21T19:41:26.782Z,29.48
2023-01-21T19:43:29.589Z,30.63
2023-01-21T19:45:32.364Z,28.60
2023-01-21T19:47:35.016Z,31.55
2023-01-21T19:49:37.727Z,29.67
2023-01-21T19:51:40.271Z,33.55
2023-01-21T19:53:42.812Z,35.78
2023-01-21T19:55:46.681Z,28.63
2023-01-21T19:57:56.239Z,31.95
2023-01-21T19:59:59.561Z,31.90
2023-01-21T20:02:02.208Z,28.65
2023-01-21T20:04:04.810Z,30.65
2023-01-21T20:06:11.215Z,31.98
2023-01-21T20:08:22.184Z,35.70
2023-01-21T20:10:26.680Z,37.00
2023-01-21T20:12:29.224Z,32.30
2023-01-21T20:14:33.328Z,34.70
2023-01-21T20:16:46.839Z,41.47
2023-01-21T20:18:49.822Z,36.55
2023-01-21T20:20:53.167Z,35.33
2023-01-21T20:22:55.886Z,38.83
2023-01-21T20:24:58.439Z,37.60
2023-01-21T20:27:02.083Z,36.10
2023-01-21T20:29:07.041Z,36.17
2023-01-21T20:31:12.070Z,38.30
2023-01-21T20:33:18.333Z,33.03
2023-01-21T20:35:22.517Z,36.72
2023-01-21T20:37:25.654Z,40.83
2023-01-21T20:39:28.308Z,39.75
2023-01-21T20:41:30.995Z,37.35
2023-01-21T20:43:34.071Z,38.72
2023-01-21T20:45:41.995Z,43.15
2023-01-21T20:47:50.976Z,39.55
2023-01-21T20:49:53.533Z,36.63
2023-01-21T20:51:56.176Z,37.85
2023-01-21T20:53:58.772Z,38.38
2023-01-21T20:56:13.322Z,38.63
2023-01-21T20:58:17.221Z,43.88
2023-01-21T21:00:22.501Z,38.42
2023-01-21T21:02:25.180Z,35.53
2023-01-21T21:04:29.947Z,36.13
2023-01-21T21:06:33.476Z,37.60
2023-01-21T21:08:36.045Z,37.90
2023-01-21T21:10:38.659Z,41.60
2023-01-21T21:12:41.233Z,39.25
2023-01-21T21:14:43.861Z,37.97
2023-01-21T21:16:46.672Z,39.28
2023-01-21T21:18:49.820Z,42.55
2023-01-21T21:20:54.634Z,36.40
2023-01-21T21:22:57.202Z,43.53
2023-01-21T21:24:59.823Z,39.67
2023-01-21T21:27:03.547Z,43.63
2023-01-21T21:29:12.655Z,42.95
2023-01-21T21:31:17.147Z,42.53
2023-01-21T21:33:22.603Z,38.67
2023-01-21T21:35:28.588Z,40.42
2023-01-21T21:37:32.469Z,40.92
2023-01-21T21:39:35.038Z,44.20
2023-01-21T21:41:54.988Z,39.25
2023-01-21T21:43:57.517Z,38.13
2023-01-21T21:46:22.374Z,40.83
2023-01-21T21:48:42.374Z,37.88
2023-01-21T21:50:44.936Z,40.75
2023-01-21T21:52:48.826Z,37.80
2023-01-21T21:54:51.594Z,40.20
2023-01-21T21:56:54.102Z,41.17
2023-01-21T21:58:56.655Z,39.72
2023-01-21T22:01:07.771Z,40.00
2023-01-21T22:03:11.719Z,39.38
2023-01-21T22:05:14.415Z,38.15
2023-01-21T22:07:16.964Z,43.05
2023-01-21T22:09:20.960Z,38.20
2023-01-21T22:11:24.135Z,39.00
2023-01-21T22:13:27.527Z,38.05
2023-01-21T22:15:30.086Z,39.60
2023-01-21T22:17:35.535Z,42.13
2023-01-21T22:19:38.131Z,39.05
2023-01-21T22:21:40.847Z,34.30
2023-01-21T22:23:43.995Z,34.45
2023-01-21T22:25:47.960Z,37.33
2023-01-21T22:27:50.503Z,37.53
2023-01-21T22:29:53.044Z,39.00
2023-01-21T22:31:55.665Z,37.83
2023-01-21T22:33:59.686Z,33.80
2023-01-21T22:36:03.451Z,38.30
2023-01-21T22:38:06.556Z,38.33
2023-01-21T22:40:11.430Z,38.00
2023-01-21T22:42:15.363Z,45.15
2023-01-21T22:44:18.169Z,39.45
2023-01-21T22:46:22.377Z,35.83
2023-01-21T22:48:25.577Z,38.30
2023-01-21T22:50:28.288Z,36.58
2023-01-21T22:52:30.871Z,37.08
2023-01-21T22:54:33.433Z,34.58
2023-01-21T22:56:50.971Z,38.50
2023-01-21T22:58:58.737Z,38.65
2023-01-21T23:01:02.301Z,36.40
2023-01-21T23:03:05.695Z,31.83
2023-01-21T23:05:08.905Z,38.50
2023-01-21T23:07:11.646Z,38.67
2023-01-21T23:09:15.199Z,34.50
2023-01-21T23:11:21.775Z,33.17
2023-01-21T23:13:26.341Z,33.42
2023-01-21T23:15:30.513Z,35.38
2023-01-21T23:17:33.089Z,35.20
2023-01-21T23:19:35.653Z,36.00
2023-01-21T23:21:38.585Z,37.58
2023-01-21T23:23:41.154Z,32.40
2023-01-21T23:25:44.835Z,32.17
2023-01-21T23:27:47.411Z,36.00
2023-01-21T23:29:49.944Z,33.70
2023-01-21T23:31:53.968Z,41.97
2023-01-21T23:33:57.283Z,38.03
2023-01-21T23:36:00.836Z,34.92
2023-01-21T23:38:04.036Z,31.92
2023-01-21T23:40:08.213Z,34.30
2023-01-21T23:42:10.801Z,37.00
2023-01-21T23:44:13.354Z,33.97
2023-01-21T23:46:19.332Z,38.25
2023-01-21T23:48:24.583Z,40.45
2023-01-21T23:50:27.199Z,39.38
2023-01-21T23:52:29.756Z,33.38
2023-01-21T23:54:32.408Z,37.30
2023-01-21T23:56:35.008Z,35.35
2023-01-21T23:58:37.676Z,36.22
